createdAt,value
2019-05-12T00:07:13.173Z,2.00
2019-05-12T00:09:54.502Z,1.40
2019-05-12T00:12:38.542Z,1.87
2019-05-12T00:15:14.045Z,1.83
2019-05-12T00:17:50.298Z,2.17
2019-05-12T00:20:47.670Z,2.07
2019-05-12T00:23:26.911Z,1.70
2019-05-12T00:25:55.525Z,1.80
2019-05-12T00:28:37.711Z,1.93
2019-05-12T00:31:27.983Z,1.97
2019-05-12T00:37:12.406Z,2.00
2019-05-12T00:40:04.042Z,1.93
2019-05-12T00:42:42.771Z,2.00
2019-05-12T00:45:14.820Z,1.90
2019-05-12T00:48:12.900Z,2.00
2019-05-12T00:50:58.396Z,1.97
2019-05-12T00:53:58.797Z,2.30
2019-05-12T00:56:58.210Z,2.33
2019-05-12T01:00:17.988Z,2.20
2019-05-12T01:03:23.646Z,2.07
2019-05-12T01:06:34.502Z,2.33
2019-05-12T01:12:29.783Z,2.33
2019-05-12T01:15:29.828Z,2.10
2019-05-12T01:21:37.634Z,3.00
2019-05-12T01:24:57.832Z,2.17
2019-05-12T01:27:38.152Z,2.37
2019-05-12T01:30:28.801Z,2.20
2019-05-12T01:33:24.533Z,2.50
2019-05-12T01:36:14.250Z,2.63
2019-05-12T01:39:02.129Z,2.10
2019-05-12T01:41:38.752Z,2.00
2019-05-12T01:44:19.875Z,2.13
2019-05-12T01:47:00.866Z,2.50
2019-05-12T01:49:58.115Z,2.47
2019-05-12T01:53:00.614Z,2.83
2019-05-12T01:55:33.120Z,2.63
2019-05-12T01:58:08.078Z,2.50
2019-05-12T02:00:48.251Z,2.60
2019-05-12T02:03:28.356Z,2.13
2019-05-12T02:06:08.412Z,2.70
2019-05-12T02:09:18.799Z,2.43
2019-05-12T02:12:38.382Z,2.37
2019-05-12T02:16:04.423Z,3.10
2019-05-12T02:19:21.143Z,2.60
2019-05-12T02:22:19.301Z,3.00
2019-05-12T02:25:50.268Z,2.37
2019-05-12T02:29:12.799Z,2.70
2019-05-12T02:32:39.769Z,2.77
2019-05-12T02:38:55.974Z,2.87
2019-05-12T02:49:08.250Z,2.80
2019-05-12T02:59:16.580Z,3.03
2019-05-12T03:05:34.881Z,3.30
2019-05-12T03:11:36.093Z,3.40
2019-05-12T03:14:57.042Z,2.30
2019-05-12T03:18:16.260Z,3.63
2019-05-12T03:21:11.404Z,3.37
2019-05-12T03:23:48.298Z,2.50
2019-05-12T03:26:24.637Z,3.00
2019-05-12T03:29:07.724Z,2.80
2019-05-12T03:31:57.020Z,2.73
2019-05-12T03:35:08.134Z,3.03
2019-05-12T03:37:39.184Z,2.80
2019-05-12T03:43:54.819Z,3.20
2019-05-12T03:47:06.433Z,2.43
2019-05-12T03:50:04.622Z,3.20
2019-05-12T03:53:11.076Z,3.60
2019-05-12T03:56:04.383Z,2.80
2019-05-12T03:58:37.449Z,3.30
2019-05-12T04:01:10.886Z,3.17
2019-05-12T04:04:07.371Z,2.87
2019-05-12T04:10:38.968Z,3.17
2019-05-12T04:13:34.143Z,3.17
2019-05-12T04:18:50.637Z,2.73
2019-05-12T04:21:45.229Z,2.80
2019-05-12T04:24:20.993Z,3.00
2019-05-12T04:27:18.326Z,3.40
2019-05-12T04:30:14.589Z,2.90
2019-05-12T04:32:55.317Z,3.23
2019-05-12T04:35:35.334Z,2.37
2019-05-12T04:38:09.907Z,2.90
2019-05-12T04:40:55.043Z,3.20
2019-05-12T04:43:50.310Z,2.50
2019-05-12T04:46:37.174Z,2.60
2019-05-12T04:49:27.955Z,3.50
2019-05-12T04:52:04.992Z,2.60
2019-05-12T04:54:39.930Z,3.53
2019-05-12T04:57:21.188Z,2.83
2019-05-12T05:00:19.907Z,2.87
2019-05-12T05:03:14.407Z,3.03
2019-05-12T05:05:54.932Z,3.00
2019-05-12T05:08:44.574Z,2.83
2019-05-12T05:11:25.861Z,2.87
2019-05-12T05:14:04.156Z,3.17
2019-05-12T05:16:55.240Z,2.93
2019-05-12T05:19:47.323Z,3.10
2019-05-12T05:22:23.648Z,2.50
2019-05-12T05:25:14.259Z,2.27
2019-05-12T05:28:04.394Z,2.57
2019-05-12T05:31:16.632Z,2.77
2019-05-12T05:34:11.522Z,2.53
2019-05-12T05:37:01.603Z,2.20
2019-05-12T05:39:47.978Z,2.80
2019-05-12T05:42:13.613Z,3.07
2019-05-12T05:44:56.125Z,2.23
2019-05-12T05:47:34.405Z,2.47
2019-05-12T05:50:13.550Z,2.60
2019-05-12T05:52:49.407Z,2.30
2019-05-12T05:56:00.228Z,2.37
2019-05-12T05:58:45.489Z,2.20
2019-05-12T06:02:04.964Z,2.60
2019-05-12T06:04:59.196Z,2.70
2019-05-12T06:16:43.121Z,2.47
2019-05-12T06:19:53.892Z,2.20
2019-05-12T06:22:53.481Z,2.63
2019-05-12T06:25:51.641Z,2.37
2019-05-12T06:31:35.907Z,2.40
2019-05-12T08:19:00.783Z,1.63
2019-05-12T08:22:10.314Z,1.40
2019-05-12T08:25:04.217Z,1.63
2019-05-12T08:27:39.099Z,1.57
2019-05-12T08:30:33.895Z,1.40
2019-05-12T08:33:15.224Z,1.57
2019-05-12T08:36:26.867Z,1.50
2019-05-12T08:39:03.846Z,2.00
2019-05-12T08:41:35.343Z,2.07
2019-05-12T08:44:07.947Z,1.50
2019-05-12T08:46:51.710Z,1.83
2019-05-12T08:49:16.712Z,1.50
2019-05-12T08:51:55.810Z,1.60
2019-05-12T08:54:24.046Z,1.70
2019-05-12T08:57:01.262Z,1.70
2019-05-12T08:59:34.155Z,1.50
2019-05-12T09:02:10.775Z,1.70
2019-05-12T09:04:51.529Z,1.70
2019-05-12T09:07:24.134Z,1.50
2019-05-12T09:09:58.140Z,1.37
2019-05-12T09:12:45.906Z,1.60
2019-05-12T09:15:19.945Z,1.53
2019-05-12T09:17:57.787Z,2.20
2019-05-12T09:20:29.182Z,1.40
2019-05-12T09:23:05.222Z,1.40
2019-05-12T09:25:48.422Z,1.43
2019-05-12T09:28:44.425Z,1.30
2019-05-12T09:34:18.350Z,1.10
2019-05-12T09:36:59.539Z,1.57
2019-05-12T09:39:34.042Z,1.40
2019-05-12T09:42:25.640Z,1.77
2019-05-12T09:44:59.931Z,1.27
2019-05-12T09:47:36.507Z,1.63
2019-05-12T09:53:26.989Z,1.40
2019-05-12T09:56:19.241Z,1.57
2019-05-12T10:00:06.550Z,1.67
2019-05-12T10:02:58.847Z,1.37
2019-05-12T10:05:30.405Z,1.30
2019-05-12T10:08:09.069Z,1.70
2019-05-12T10:10:53.730Z,1.30
2019-05-12T10:14:27.261Z,1.40
2019-05-12T10:20:57.385Z,1.20
2019-05-12T10:23:34.037Z,1.20
2019-05-12T10:26:16.483Z,1.53
2019-05-12T10:28:57.210Z,1.30
2019-05-12T10:35:20.547Z,1.37
2019-05-12T10:37:48.691Z,1.30
2019-05-12T10:40:23.232Z,1.30
2019-05-12T10:43:04.153Z,0.97
2019-05-12T10:45:58.885Z,1.07
2019-05-12T10:48:45.001Z,0.90
2019-05-12T10:51:18.225Z,1.30
2019-05-12T10:53:58.247Z,0.90
2019-05-12T10:56:27.882Z,0.80
2019-05-12T10:59:13.314Z,0.90
2019-05-12T11:02:03.613Z,0.80
2019-05-12T11:04:43.837Z,0.83
2019-05-12T11:07:15.123Z,0.70
2019-05-12T11:09:50.576Z,0.87
2019-05-12T11:12:36.874Z,0.60
2019-05-12T11:19:10.392Z,1.40
2019-05-12T11:21:44.150Z,1.00
2019-05-12T11:27:24.068Z,0.60
2019-05-12T11:30:37.525Z,0.97
2019-05-12T11:33:16.482Z,0.83
2019-05-12T11:35:46.505Z,1.20
2019-05-12T11:38:18.121Z,1.00
2019-05-12T11:40:55.267Z,0.67
2019-05-12T11:43:25.596Z,0.60
2019-05-12T11:45:58.259Z,1.10
2019-05-12T11:48:29.183Z,0.73
2019-05-12T11:51:05.867Z,0.93
2019-05-12T11:53:35.749Z,0.80
2019-05-12T11:56:07.815Z,1.20
2019-05-12T11:58:51.472Z,0.83
2019-05-12T12:01:27.538Z,0.70
2019-05-12T12:03:59.346Z,1.17
2019-05-12T12:06:47.984Z,1.10
2019-05-12T12:09:26.070Z,0.73
2019-05-12T12:12:02.397Z,1.20
2019-05-12T12:14:34.424Z,1.33
2019-05-12T12:17:13.616Z,0.60
2019-05-12T12:20:00.611Z,0.73
2019-05-12T12:22:39.175Z,0.60
2019-05-12T12:25:33.885Z,0.53
2019-05-12T12:28:24.990Z,0.80
2019-05-12T12:31:04.359Z,0.60
2019-05-12T12:33:40.731Z,0.50
2019-05-12T12:36:16.717Z,0.80
2019-05-12T12:38:58.853Z,3.10
2019-05-12T12:41:56.087Z,0.67
2019-05-12T12:44:24.014Z,0.70
2019-05-12T12:47:03.353Z,0.67
2019-05-12T12:49:49.080Z,1.60
2019-05-12T12:53:14.918Z,0.63
2019-05-12T12:55:58.640Z,3.17
2019-05-12T12:58:36.125Z,0.60
2019-05-12T13:01:21.885Z,0.87
2019-05-12T13:03:59.424Z,1.30
2019-05-12T13:06:35.976Z,0.77
2019-05-12T13:09:27.300Z,1.60
2019-05-12T13:12:06.014Z,0.90
2019-05-12T13:14:38.351Z,1.90
2019-05-12T13:17:41.724Z,0.50
2019-05-12T13:21:13.952Z,1.20
2019-05-12T13:34:28.894Z,1.00
2019-05-12T13:37:09.509Z,0.90
2019-05-12T13:39:56.867Z,1.40
2019-05-12T13:42:35.653Z,2.10
2019-05-12T13:45:15.986Z,0.70
2019-05-12T13:48:25.411Z,1.53
2019-05-12T13:51:12.344Z,1.73
2019-05-12T13:57:46.245Z,1.40
2019-05-12T14:01:19.869Z,1.00
2019-05-12T14:07:43.717Z,1.93
2019-05-12T14:10:28.774Z,1.30
2019-05-12T14:13:26.552Z,1.10
2019-05-12T14:16:38.661Z,1.00
2019-05-12T14:19:35.547Z,1.43
2019-05-12T14:22:21.263Z,1.67
2019-05-12T14:25:08.406Z,0.80
2019-05-12T14:27:59.498Z,0.90
2019-05-12T14:31:29.472Z,1.27
2019-05-12T14:37:55.519Z,0.90
2019-05-12T14:47:30.374Z,0.80
2019-05-12T14:50:14.093Z,1.00
2019-05-12T15:12:56.696Z,1.40
2019-05-12T15:29:49.994Z,0.90
2019-05-12T15:33:07.566Z,2.23
2019-05-12T15:42:35.826Z,1.17
2019-05-12T15:57:13.532Z,1.67
2019-05-12T16:06:18.685Z,1.13
2019-05-12T16:09:34.736Z,1.23
2019-05-12T16:16:48.920Z,1.97
2019-05-12T16:23:15.494Z,3.60
2019-05-12T21:05:19.958Z,0.70
2019-05-12T21:07:55.889Z,0.70
2019-05-12T21:10:34.886Z,0.80
2019-05-12T21:13:09.031Z,0.70
2019-05-12T21:15:48.907Z,0.70
2019-05-12T21:18:27.558Z,0.70
2019-05-12T21:20:57.332Z,0.70
2019-05-12T21:23:33.270Z,0.73
2019-05-12T21:26:12.933Z,0.60
2019-05-12T21:28:48.173Z,0.80
2019-05-12T21:31:29.317Z,0.70
2019-05-12T21:33:53.505Z,0.77
2019-05-12T21:36:29.586Z,0.60
2019-05-12T21:39:08.340Z,0.83
2019-05-12T21:41:40.724Z,1.00
2019-05-12T21:44:11.268Z,0.70
2019-05-12T21:46:46.988Z,0.80
2019-05-12T21:49:15.504Z,0.60
2019-05-12T21:51:50.544Z,0.90
2019-05-12T21:54:24.033Z,0.80
2019-05-12T21:56:54.275Z,0.83
2019-05-12T21:59:28.947Z,0.70
2019-05-12T22:01:58.030Z,0.80
2019-05-12T22:04:33.072Z,0.90
2019-05-12T22:07:07.029Z,0.90
2019-05-12T22:09:41.675Z,0.70
2019-05-12T22:12:16.553Z,0.90
2019-05-12T22:14:50.711Z,0.90
2019-05-12T22:17:23.955Z,0.70
2019-05-12T22:19:55.715Z,0.87
2019-05-12T22:22:33.227Z,1.00
2019-05-12T22:25:09.844Z,1.00
2019-05-12T22:27:38.303Z,0.70
2019-05-12T22:30:13.518Z,0.80
2019-05-12T22:32:45.303Z,1.00
2019-05-12T22:35:22.161Z,0.90
2019-05-12T22:37:54.754Z,0.87
2019-05-12T22:40:29.977Z,0.80
2019-05-12T22:43:14.132Z,0.83
2019-05-12T22:45:54.916Z,0.90
2019-05-12T22:48:38.940Z,0.90
2019-05-12T22:51:06.031Z,0.63
2019-05-12T22:53:37.491Z,1.00
2019-05-12T22:56:18.168Z,0.83
2019-05-12T22:58:51.916Z,1.00
2019-05-12T23:01:25.357Z,0.90
2019-05-12T23:04:03.835Z,1.10
2019-05-12T23:06:42.642Z,1.10
2019-05-12T23:09:07.955Z,0.70
2019-05-12T23:11:38.094Z,0.80
2019-05-12T23:14:12.536Z,1.00
2019-05-12T23:16:44.278Z,1.00
2019-05-12T23:19:20.163Z,1.10
2019-05-12T23:21:55.324Z,1.47
2019-05-12T23:24:24.178Z,0.93
2019-05-12T23:26:54.699Z,0.97
2019-05-12T23:29:30.992Z,1.20
2019-05-12T23:32:07.253Z,1.10
2019-05-12T23:34:35.989Z,1.10
2019-05-12T23:37:07.391Z,1.17
2019-05-12T23:39:39.974Z,1.20
2019-05-12T23:42:13.612Z,0.97
2019-05-12T23:44:49.245Z,0.77
2019-05-12T23:47:23.635Z,0.87
2019-05-12T23:49:58.923Z,1.13
2019-05-12T23:52:40.670Z,1.10
2019-05-12T23:55:13.799Z,1.37
2019-05-12T23:57:48.841Z,0.93
